Time;durP1;ratioP1;P1;durP2;ratioP2;P2;SDS_P1;SDS_P2;PMS_P1;PMS_P2;Temp;Humidity;BMP_temperature;BMP_pressure;BME280_temperature;BME280_humidity;BME280_pressure;Samples;Min_cycle;Max_cycle;Signal;HPM_P1;HPM_P2
2023/04/03 00:01:12;;;;;;;9.98;3.97;;;;;;;11.80;52.48;100567.47;5093601;28;20377;-74
2023/04/03 00:03:37;;;;;;;10.00;4.03;;;;;;;11.77;52.50;100562.50;5093525;28;20413;-74
2023/04/03 00:06:06;;;;;;;11.32;4.32;;;;;;;11.83;52.18;100554.63;5093506;28;20403;-74
2023/04/03 00:08:32;;;;;;;6.97;3.65;;;;;;;11.86;52.29;100561.41;5093625;28;20446;-74
2023/04/03 00:10:58;;;;;;;8.15;4.00;;;;;;;11.90;52.24;100556.56;5093575;28;20451;-74
2023/04/03 00:13:24;;;;;;;7.82;3.65;;;;;;;12.01;51.82;100549.00;5092965;28;20858;-74
2023/04/03 00:15:49;;;;;;;8.88;3.45;;;;;;;12.05;51.79;100555.59;5093643;28;20566;-74
2023/04/03 00:18:15;;;;;;;9.13;3.53;;;;;;;12.03;51.84;100556.78;5093247;28;20892;-74
2023/04/03 00:20:41;;;;;;;9.65;3.80;;;;;;;11.99;51.94;100560.78;5093277;28;20709;-74
2023/04/03 00:23:06;;;;;;;9.00;3.78;;;;;;;11.98;52.01;100565.28;5093421;28;20446;-75
2023/04/03 00:25:32;;;;;;;8.35;3.65;;;;;;;11.83;52.63;100564.44;5092951;28;20873;-74
2023/04/03 00:27:58;;;;;;;9.07;3.55;;;;;;;11.88;52.47;100558.56;5092800;28;20408;-74
2023/04/03 00:30:24;;;;;;;10.27;3.78;;;;;;;11.79;52.57;100549.84;5092706;28;20714;-74
2023/04/03 00:32:52;;;;;;;6.30;3.38;;;;;;;11.70;52.82;100551.75;5093070;28;20381;-74
2023/04/03 00:35:18;;;;;;;9.35;3.83;;;;;;;11.53;53.60;100548.44;5092194;28;20841;-74
2023/04/03 00:37:44;;;;;;;7.97;3.60;;;;;;;11.52;53.76;100549.44;5091916;28;20389;-74
2023/04/03 00:40:12;;;;;;;9.80;3.77;;;;;;;11.62;53.24;100555.34;5092524;28;20417;-74
2023/04/03 00:42:40;;;;;;;10.18;3.70;;;;;;;11.61;53.37;100552.84;5092312;28;20392;-74
2023/04/03 00:45:05;;;;;;;10.10;4.53;;;;;;;11.60;53.29;100561.84;5093089;28;20405;-74
2023/04/03 00:47:31;;;;;;;9.77;4.45;;;;;;;11.56;53.17;100561.38;5092577;28;20984;-74
2023/04/03 00:49:58;;;;;;;9.55;3.85;;;;;;;11.52;53.51;100559.25;5092345;28;20381;-74
2023/04/03 00:52:29;;;;;;;10.15;3.50;;;;;;;11.53;53.54;100568.88;5092475;28;20799;-73
2023/04/03 00:54:59;;;;;;;6.17;3.37;;;;;;;11.46;53.75;100568.75;5092564;28;20381;-73
2023/04/03 00:57:26;;;;;;;10.15;3.60;;;;;;;11.40;54.19;100572.97;5092637;28;20865;-73
2023/04/03 00:59:57;;;;;;;9.05;3.50;;;;;;;11.57;53.82;100570.16;5092772;28;20377;-74
2023/04/03 01:02:22;;;;;;;6.53;3.00;;;;;;;11.56;53.54;100566.69;5091817;28;20389;-74
2023/04/03 01:04:48;;;;;;;7.60;3.10;;;;;;;11.50;53.73;100567.38;5092398;28;20518;-74
2023/04/03 01:07:22;;;;;;;7.43;2.80;;;;;;;11.43;54.17;100559.34;5092423;28;20397;-74
2023/04/03 01:09:51;;;;;;;9.18;3.38;;;;;;;11.48;54.08;100564.91;5090503;28;20396;-73
2023/04/03 01:12:20;;;;;;;8.23;3.10;;;;;;;11.53;53.89;100572.34;5092034;28;20393;-73
2023/04/03 01:14:48;;;;;;;5.50;2.60;;;;;;;11.52;53.93;100562.72;5074582;28;20402;-74
2023/04/03 01:17:39;;;;;;;10.77;2.90;;;;;;;11.38;54.35;100567.00;5092258;28;20412;-73
2023/04/03 01:20:11;;;;;;;7.78;2.75;;;;;;;11.33;54.52;100571.22;5089960;28;20381;-73
2023/04/03 01:23:12;;;;;;;9.47;3.10;;;;;;;11.21;54.78;100565.47;5091960;28;20454;-73
2023/04/03 01:25:39;;;;;;;8.02;2.90;;;;;;;11.23;54.72;100555.50;5058981;28;20415;-74
2023/04/03 01:28:08;;;;;;;7.85;2.63;;;;;;;11.24;54.90;100550.03;5070863;28;20531;-74
2023/04/03 01:30:41;;;;;;;8.88;3.00;;;;;;;11.32;54.23;100549.13;5091238;28;20393;-74
2023/04/03 01:33:06;;;;;;;8.00;2.60;;;;;;;11.33;54.08;100558.75;5090395;28;20385;-73
2023/04/03 01:35:32;;;;;;;6.25;2.40;;;;;;;11.27;54.30;100562.09;5091988;28;20377;-74
2023/04/03 01:37:57;;;;;;;7.70;2.50;;;;;;;11.21;54.18;100560.19;5091920;28;20464;-73
2023/04/03 01:40:23;;;;;;;5.60;2.15;;;;;;;11.20;54.26;100564.66;5091359;28;20458;-74
2023/04/03 01:42:48;;;;;;;5.40;2.07;;;;;;;11.04;54.50;100564.78;5091479;28;20390;-74
2023/04/03 01:45:14;;;;;;;6.22;2.20;;;;;;;11.04;54.71;100562.13;5091728;28;20760;-74
2023/04/03 01:47:40;;;;;;;6.90;2.17;;;;;;;11.06;54.07;100552.16;5090838;28;20736;-75
2023/04/03 01:50:05;;;;;;;8.30;2.30;;;;;;;10.97;54.16;100558.53;5091893;28;20369;-74
2023/04/03 01:52:31;;;;;;;6.67;2.13;;;;;;;11.00;54.39;100568.78;5091817;28;20381;-74
2023/04/03 01:54:56;;;;;;;7.10;2.13;;;;;;;10.91;54.37;100560.03;5091480;28;20401;-74
2023/04/03 01:57:22;;;;;;;8.53;2.50;;;;;;;10.93;54.14;100562.53;5091193;28;20421;-74
2023/04/03 01:59:47;;;;;;;6.67;2.13;;;;;;;10.85;54.13;100556.28;5091694;28;20434;-75
2023/04/03 02:02:14;;;;;;;5.90;2.10;;;;;;;10.71;54.69;100563.16;5090928;28;20876;-74
2023/04/03 02:04:40;;;;;;;6.88;2.35;;;;;;;10.66;54.77;100560.22;5091197;28;20832;-74
2023/04/03 02:07:05;;;;;;;7.13;2.40;;;;;;;10.73;54.87;100570.91;5091036;28;20421;-74
2023/04/03 02:09:31;;;;;;;7.83;2.50;;;;;;;10.79;54.37;100566.78;5073112;28;20417;-74
2023/04/03 02:11:56;;;;;;;8.35;2.30;;;;;;;10.76;54.59;100575.88;5091338;28;20377;-74
2023/04/03 02:14:23;;;;;;;5.57;2.20;;;;;;;10.80;54.25;100577.19;5090956;28;20478;-74
2023/04/03 02:16:49;;;;;;;6.85;2.13;;;;;;;10.73;54.49;100581.53;5090795;28;20708;-74
2023/04/03 02:19:15;;;;;;;5.63;2.00;;;;;;;10.77;54.37;100574.91;5090883;28;21333;-74
2023/04/03 02:21:41;;;;;;;7.27;2.20;;;;;;;10.76;54.46;100573.22;5088577;28;20450;-74
2023/04/03 02:24:06;;;;;;;6.57;2.40;;;;;;;10.75;54.57;100592.81;5094555;28;20386;-73
2023/04/03 02:26:31;;;;;;;8.20;2.67;;;;;;;10.84;54.11;100583.81;5098799;28;20420;-73
2023/04/03 02:28:57;;;;;;;8.33;2.43;;;;;;;10.85;54.30;100577.47;5097533;28;20377;-73
2023/04/03 02:31:23;;;;;;;7.05;2.33;;;;;;;10.89;53.94;100577.97;5093990;28;20393;-74
2023/04/03 02:33:49;;;;;;;7.95;2.35;;;;;;;10.88;53.70;100569.19;5090512;28;20438;-74
2023/04/03 02:36:16;;;;;;;7.38;2.70;;;;;;;10.96;53.74;100568.28;5090149;28;20389;-73
2023/04/03 02:38:41;;;;;;;8.63;2.50;;;;;;;11.07;53.08;100575.03;5087777;28;20464;-74
2023/04/03 02:41:10;;;;;;;10.33;2.90;;;;;;;11.07;53.35;100572.38;5090766;28;20456;-74
2023/04/03 02:43:36;;;;;;;7.10;2.60;;;;;;;11.08;53.20;100566.06;5090630;28;21383;-74
2023/04/03 02:46:01;;;;;;;6.40;2.55;;;;;;;11.19;52.66;100575.44;5088010;28;20404;-74
2023/04/03 02:48:27;;;;;;;9.48;2.50;;;;;;;11.08;52.79;100563.44;5090519;28;20480;-73
2023/04/03 02:50:53;;;;;;;6.00;2.45;;;;;;;11.12;52.93;100564.72;5090401;28;20385;-73
2023/04/03 02:53:19;;;;;;;6.13;2.60;;;;;;;11.18;52.67;100564.03;5090213;28;20804;-74
2023/04/03 02:55:45;;;;;;;6.97;2.30;;;;;;;11.20;52.44;100572.63;5090610;28;20464;-73
2023/04/03 02:58:10;;;;;;;10.37;4.37;;;;;;;11.19;52.27;100581.56;5090374;28;20814;-74
2023/04/03 03:00:37;;;;;;;10.40;7.70;;;;;;;11.21;52.31;100578.75;5089600;28;20394;-74
2023/04/03 03:03:02;;;;;;;13.80;10.85;;;;;;;11.25;52.10;100578.22;5072609;28;20377;-74
2023/04/03 03:05:29;;;;;;;6.18;2.97;;;;;;;11.26;51.90;100576.38;5090102;28;20796;-75
2023/04/03 03:07:55;;;;;;;5.65;2.72;;;;;;;11.21;52.35;100578.75;5089601;28;20396;-74
2023/04/03 03:10:20;;;;;;;5.40;3.03;;;;;;;11.25;52.50;100586.19;5090208;28;20381;-74
2023/04/03 03:12:46;;;;;;;7.22;2.90;;;;;;;11.15;52.69;100579.47;5090446;28;20385;-74
2023/04/03 03:15:12;;;;;;;5.80;2.38;;;;;;;11.13;52.71;100577.00;5090228;28;20378;-74
2023/04/03 03:17:38;;;;;;;7.10;2.42;;;;;;;10.98;53.27;100574.25;5090380;28;20420;-74
2023/04/03 03:20:05;;;;;;;3.63;2.30;;;;;;;10.86;53.37;100583.63;5090328;28;20416;-73
2023/04/03 03:22:31;;;;;;;7.40;3.60;;;;;;;10.86;53.51;100580.97;5089896;28;20377;-74
2023/04/03 03:24:56;;;;;;;17.02;7.32;;;;;;;10.70;54.01;100573.94;5090169;28;20416;-73
2023/04/03 03:27:22;;;;;;;19.80;9.70;;;;;;;10.79;53.74;100572.91;5090386;28;20887;-74
2023/04/03 03:29:47;;;;;;;20.77;8.70;;;;;;;10.82;53.53;100583.16;5090230;28;20403;-74
2023/04/03 03:32:13;;;;;;;18.70;8.40;;;;;;;10.81;53.65;100589.44;5089972;28;20382;-74
2023/04/03 03:34:38;;;;;;;21.70;10.17;;;;;;;10.73;53.91;100578.88;5089548;28;20462;-74
2023/04/03 03:37:04;;;;;;;18.70;9.30;;;;;;;10.68;53.92;100575.94;5090236;28;20878;-75
2023/04/03 03:39:30;;;;;;;24.90;11.30;;;;;;;10.64;54.00;100578.13;5072537;28;20446;-74
2023/04/03 03:41:55;;;;;;;23.98;10.63;;;;;;;10.52;54.84;100587.44;5090177;28;20393;-74
2023/04/03 03:44:21;;;;;;;24.13;11.73;;;;;;;10.53;54.64;100575.84;5072181;28;20960;-74
2023/04/03 03:46:47;;;;;;;24.30;12.15;;;;;;;10.50;55.06;100574.38;5089863;28;20385;-73
2023/04/03 03:49:12;;;;;;;25.80;11.32;;;;;;;10.56;55.06;100575.50;5089880;28;20380;-74
2023/04/03 03:51:39;;;;;;;9.57;5.03;;;;;;;10.66;54.47;100589.38;5089253;28;20469;-75
2023/04/03 03:54:05;;;;;;;7.00;3.72;;;;;;;10.69;54.25;100585.53;5089936;28;20434;-73
2023/04/03 03:56:30;;;;;;;5.32;3.20;;;;;;;10.74;54.28;100592.97;5089799;28;20373;-74
2023/04/03 03:58:56;;;;;;;4.72;2.80;;;;;;;10.75;54.29;100591.97;5090158;28;20405;-75
2023/04/03 04:01:23;;;;;;;11.98;3.70;;;;;;;10.81;54.01;100581.50;5088914;28;20389;-74
2023/04/03 04:03:48;;;;;;;8.37;3.53;;;;;;;10.68;54.40;100582.06;5089994;28;20381;-73
2023/04/03 04:06:15;;;;;;;5.60;3.30;;;;;;;10.61;54.92;100583.75;5090049;28;20814;-73
2023/04/03 04:08:41;;;;;;;8.88;3.75;;;;;;;10.55;55.11;100576.47;5089537;28;20450;-74
2023/04/03 04:11:07;;;;;;;7.25;3.80;;;;;;;10.41;55.32;100570.09;5091187;28;20381;-75
2023/04/03 04:13:32;;;;;;;8.82;3.90;;;;;;;10.30;56.32;100562.50;5093634;28;20730;-74
2023/04/03 04:15:58;;;;;;;9.02;4.18;;;;;;;10.22;56.53;100565.19;5075210;28;20388;-74
2023/04/03 04:18:24;;;;;;;7.53;4.40;;;;;;;10.21;56.30;100564.38;5093021;28;20415;-74
2023/04/03 04:20:49;;;;;;;8.00;4.20;;;;;;;10.10;57.32;100570.00;5093452;28;20385;-74
2023/04/03 04:23:17;;;;;;;9.20;4.17;;;;;;;10.10;57.30;100559.41;5093327;28;20405;-74
2023/04/03 04:25:48;;;;;;;12.20;4.68;;;;;;;10.12;57.02;100557.44;5091560;28;20904;-75
2023/04/03 04:28:13;;;;;;;10.18;4.43;;;;;;;10.11;56.66;100564.53;5093688;28;20403;-74
2023/04/03 04:30:39;;;;;;;5.27;3.80;;;;;;;10.14;57.30;100566.03;5074857;28;21115;-74
2023/04/03 04:33:05;;;;;;;7.93;5.60;;;;;;;10.33;56.51;100564.81;5092538;28;20381;-75
2023/04/03 04:35:30;;;;;;;8.95;4.47;;;;;;;10.35;56.34;100564.66;5093138;28;20369;-74
2023/04/03 04:37:56;;;;;;;12.27;5.67;;;;;;;10.47;56.21;100560.63;5093042;28;21035;-74
2023/04/03 04:40:21;;;;;;;10.03;5.93;;;;;;;10.61;55.54;100553.78;5092690;28;20416;-74
2023/04/03 04:42:47;;;;;;;12.03;6.50;;;;;;;10.66;55.65;100560.22;5093592;28;20913;-76
2023/04/03 04:45:12;;;;;;;17.80;11.13;;;;;;;10.70;55.45;100558.84;5093507;28;20393;-75
2023/04/03 04:47:38;;;;;;;17.35;9.77;;;;;;;10.79;55.18;100550.88;5092903;28;20791;-75
2023/04/03 04:50:04;;;;;;;15.80;11.00;;;;;;;10.76;55.25;100562.63;5092692;28;20373;-74
2023/04/03 04:52:30;;;;;;;14.25;8.65;;;;;;;10.87;55.21;100562.22;5092130;28;20431;-75
2023/04/03 04:54:55;;;;;;;18.83;9.27;;;;;;;11.03;54.76;100576.38;5084835;28;20413;-75
2023/04/03 04:57:21;;;;;;;16.90;9.05;;;;;;;11.07;54.66;100580.31;5086723;28;20863;-75
2023/04/03 04:59:46;;;;;;;16.27;9.77;;;;;;;11.16;54.42;100570.50;5080599;28;20400;-75
2023/04/03 05:02:12;;;;;;;16.37;8.50;;;;;;;11.10;54.74;100570.19;5084633;28;20373;-75
2023/04/03 05:04:37;;;;;;;15.60;8.77;;;;;;;11.21;54.43;100579.56;5087003;28;20393;-75
2023/04/03 05:07:03;;;;;;;17.60;8.83;;;;;;;11.25;54.59;100578.22;5075408;28;20388;-75
2023/04/03 05:09:29;;;;;;;12.10;7.38;;;;;;;11.28;54.38;100569.88;5087901;28;20387;-75
2023/04/03 05:11:54;;;;;;;10.57;5.53;;;;;;;11.43;54.24;100580.56;5081650;28;20386;-74
2023/04/03 05:14:20;;;;;;;11.90;5.30;;;;;;;11.44;53.95;100587.50;5066774;28;20387;-74
2023/04/03 05:16:45;;;;;;;9.87;5.90;;;;;;;11.51;54.02;100592.94;5095251;28;20402;-75
2023/04/03 05:19:11;;;;;;;12.35;5.85;;;;;;;11.60;53.79;100588.38;5101258;28;20903;-75
2023/04/03 05:21:36;;;;;;;10.80;5.07;;;;;;;11.75;53.53;100602.50;5104413;28;20377;-74
2023/04/03 05:24:02;;;;;;;13.52;6.15;;;;;;;11.74;53.83;100587.59;5096288;28;20444;-74
2023/04/03 05:26:29;;;;;;;11.57;6.10;;;;;;;11.79;53.58;100587.03;5092370;28;20390;-75
2023/04/03 05:28:55;;;;;;;13.15;6.32;;;;;;;11.78;53.92;100593.38;5092675;28;20377;-75
2023/04/03 05:31:21;;;;;;;16.50;5.63;;;;;;;11.84;53.85;100595.28;5091874;28;20712;-75
2023/04/03 05:33:46;;;;;;;7.35;4.53;;;;;;;11.98;53.48;100601.66;5091579;28;20381;-76
2023/04/03 05:36:12;;;;;;;7.65;4.35;;;;;;;12.02;53.27;100600.28;5092609;28;20377;-74
2023/04/03 05:38:38;;;;;;;7.10;4.40;;;;;;;12.20;53.02;100611.38;5092091;28;20377;-75
2023/04/03 05:41:04;;;;;;;8.98;4.53;;;;;;;12.43;52.74;100629.88;5091872;28;20384;-75
2023/04/03 05:43:30;;;;;;;5.53;3.83;;;;;;;12.61;52.25;100624.19;5092306;28;20417;-75
2023/04/03 05:45:55;;;;;;;7.23;3.50;;;;;;;12.81;52.03;100623.63;5091690;28;20389;-74
2023/04/03 05:48:21;;;;;;;5.18;3.60;;;;;;;12.92;51.71;100624.97;5092662;28;20371;-75
2023/04/03 05:50:47;;;;;;;6.87;3.53;;;;;;;12.93;51.48;100621.31;5092784;28;20389;-74
2023/04/03 05:53:24;;;;;;;6.37;3.30;;;;;;;13.03;51.60;100623.66;5092357;28;20381;-75
2023/04/03 05:55:50;;;;;;;8.70;3.70;;;;;;;13.11;51.29;100627.03;5092380;28;20384;-75
2023/04/03 05:58:15;;;;;;;5.72;3.00;;;;;;;13.07;51.06;100632.91;5098427;28;20377;-75
2023/04/03 06:00:41;;;;;;;5.37;3.10;;;;;;;13.00;51.00;100628.34;5098920;28;20441;-74
2023/04/03 06:03:06;;;;;;;5.77;3.13;;;;;;;13.13;50.92;100640.16;5098859;28;20472;-75
2023/04/03 06:05:32;;;;;;;4.93;3.05;;;;;;;13.13;51.06;100653.44;5092750;28;20397;-74
2023/04/03 06:07:58;;;;;;;6.25;2.90;;;;;;;13.10;51.26;100651.16;5090834;28;20473;-76
2023/04/03 06:10:23;;;;;;;4.70;2.43;;;;;;;13.29;51.34;100655.03;5073498;28;20724;-76
2023/04/03 06:12:49;;;;;;;5.53;2.63;;;;;;;13.35;50.71;100654.31;5092401;28;20430;-75
2023/04/03 06:15:16;;;;;;;6.05;2.90;;;;;;;13.49;50.78;100668.59;5091124;28;20708;-75
2023/04/03 06:17:42;;;;;;;6.70;3.05;;;;;;;13.55;50.47;100667.81;5091162;28;20758;-75
2023/04/03 06:20:09;;;;;;;9.77;3.30;;;;;;;13.62;50.54;100660.72;5091349;28;20860;-75
2023/04/03 06:22:35;;;;;;;6.33;2.87;;;;;;;13.73;50.39;100670.03;5084939;28;20408;-75
2023/04/03 06:25:01;;;;;;;8.48;3.80;;;;;;;13.84;50.26;100664.19;5078594;28;20429;-74
2023/04/03 06:27:26;;;;;;;9.88;3.60;;;;;;;13.89;50.10;100663.63;5081211;28;20790;-74
2023/04/03 06:29:52;;;;;;;6.17;2.63;;;;;;;14.03;49.79;100661.88;5079943;28;20385;-76
2023/04/03 06:32:17;;;;;;;6.47;2.88;;;;;;;14.11;49.85;100662.53;5071325;28;20819;-76
2023/04/03 06:34:43;;;;;;;7.83;3.10;;;;;;;14.29;49.61;100667.38;5058177;28;20370;-74
2023/04/03 06:37:18;;;;;;;5.70;3.10;;;;;;;14.36;49.26;100659.41;5073960;28;20445;-76
2023/04/03 06:39:43;;;;;;;5.18;2.40;;;;;;;14.28;49.28;100667.59;5091055;28;20524;-77
2023/04/03 06:42:09;;;;;;;3.65;2.67;;;;;;;14.10;49.64;100658.25;5091595;28;20463;-74
2023/04/03 06:44:35;;;;;;;5.15;2.40;;;;;;;14.09;50.11;100653.09;5090151;28;20397;-75
2023/04/03 06:47:01;;;;;;;4.77;2.00;;;;;;;14.19;49.62;100660.72;5088968;28;20377;-75
2023/04/03 06:49:26;;;;;;;6.03;1.93;;;;;;;14.11;49.72;100651.06;5089268;28;20921;-75
2023/04/03 06:51:52;;;;;;;4.40;2.17;;;;;;;14.32;49.46;100653.66;5084085;28;20405;-77
2023/04/03 06:54:18;;;;;;;5.60;2.60;;;;;;;14.47;49.25;100664.19;5080885;28;20383;-76
2023/04/03 06:56:43;;;;;;;6.13;2.50;;;;;;;14.82;48.61;100666.03;5080860;28;20924;-75
2023/04/03 06:59:12;;;;;;;11.55;3.03;;;;;;;14.95;48.51;100659.94;5080421;28;20445;-75
2023/04/03 07:01:37;;;;;;;9.05;2.63;;;;;;;14.84;48.28;100659.50;5084112;28;20481;-75
2023/04/03 07:04:03;;;;;;;7.28;2.60;;;;;;;15.01;48.42;100667.13;5076168;28;20938;-75
2023/04/03 07:06:28;;;;;;;2.47;1.77;;;;;;;14.97;48.04;100673.91;5074033;28;20407;-74
2023/04/03 07:08:55;;;;;;;5.75;2.50;;;;;;;15.07;47.62;100660.97;5071425;28;20936;-74
2023/04/03 07:11:20;;;;;;;7.10;2.83;;;;;;;15.05;47.68;100685.25;5082863;28;20374;-75
2023/04/03 07:13:46;;;;;;;4.97;2.30;;;;;;;14.81;47.91;100675.88;5084444;28;20691;-75
2023/04/03 07:16:12;;;;;;;2.60;1.90;;;;;;;15.07;47.42;100674.34;5086226;28;20471;-75
2023/04/03 07:18:37;;;;;;;3.53;1.70;;;;;;;15.10;47.08;100679.28;5079038;28;20752;-76
2023/04/03 07:21:04;;;;;;;3.33;1.97;;;;;;;15.17;47.04;100668.63;5087594;28;20369;-75
2023/04/03 07:23:30;;;;;;;4.57;2.00;;;;;;;15.20;46.69;100671.72;5089663;28;20502;-75
2023/04/03 07:25:56;;;;;;;7.03;2.20;;;;;;;15.09;46.92;100665.13;5089652;28;20872;-74
2023/04/03 07:28:22;;;;;;;3.42;1.88;;;;;;;15.17;47.03;100663.28;5090130;28;20374;-76
2023/04/03 07:31:13;;;;;;;3.72;2.00;;;;;;;15.18;47.10;100656.91;5089581;28;20380;-75
2023/04/03 07:33:39;;;;;;;4.20;1.93;;;;;;;15.48;46.53;100662.72;5088937;28;20381;-76
2023/04/03 07:36:06;;;;;;;5.68;2.10;;;;;;;15.29;46.91;100672.38;5089683;28;20365;-76
2023/04/03 07:38:32;;;;;;;2.55;1.77;;;;;;;15.57;46.36;100653.47;5090068;28;21100;-76
2023/04/03 07:40:57;;;;;;;5.05;2.10;;;;;;;15.47;46.10;100647.75;5090385;28;20385;-75
2023/04/03 07:43:24;;;;;;;3.83;1.80;;;;;;;15.56;45.76;100651.03;5090795;28;20480;-74
2023/04/03 07:45:50;;;;;;;4.32;2.00;;;;;;;15.66;45.81;100652.28;5074484;28;20385;-76
2023/04/03 07:48:21;;;;;;;5.57;2.20;;;;;;;16.02;45.26;100652.91;5094651;28;20377;-75
2023/04/03 07:50:47;;;;;;;3.70;2.05;;;;;;;16.09;45.13;100652.91;5094608;28;20721;-76
2023/04/03 07:53:12;;;;;;;7.82;2.20;;;;;;;16.03;44.87;100649.22;5094042;28;20384;-75
2023/04/03 07:55:42;;;;;;;4.60;2.20;;;;;;;16.02;44.91;100656.38;5092688;28;20373;-75
2023/04/03 07:58:14;;;;;;;4.15;1.98;;;;;;;16.14;45.08;100653.09;5093164;28;20377;-76
2023/04/03 08:00:40;;;;;;;3.45;1.75;;;;;;;15.73;45.89;100654.94;5089743;28;20385;-75
2023/04/03 08:03:07;;;;;;;2.67;1.90;;;;;;;15.96;45.52;100651.06;5093455;28;20722;-74
2023/04/03 08:05:46;;;;;;;6.25;2.10;;;;;;;15.97;45.90;100650.84;5094617;28;20845;-75
2023/04/03 08:08:15;;;;;;;4.65;1.88;;;;;;;16.19;45.19;100645.28;5089367;28;20385;-75
2023/04/03 08:10:41;;;;;;;4.00;1.88;;;;;;;16.24;44.24;100656.16;5089310;28;20651;-76
2023/04/03 08:13:08;;;;;;;2.88;1.60;;;;;;;16.24;44.37;100648.13;5093015;28;20876;-74
2023/04/03 08:15:33;;;;;;;2.95;1.70;;;;;;;16.12;44.25;100657.84;5094463;28;20561;-77
2023/04/03 08:18:00;;;;;;;6.80;1.60;;;;;;;16.19;44.32;100645.28;5092941;28;20397;-76
2023/04/03 08:20:27;;;;;;;3.63;1.80;;;;;;;16.55;44.24;100647.44;5093917;28;20438;-75
2023/04/03 08:22:52;;;;;;;2.47;1.67;;;;;;;16.61;44.22;100630.53;5093478;28;20389;-74
2023/04/03 08:25:18;;;;;;;5.25;1.80;;;;;;;16.71;43.88;100632.78;5092994;28;20401;-77
2023/04/03 08:27:44;;;;;;;2.55;1.40;;;;;;;16.77;43.58;100636.44;5093856;28;20385;-75
2023/04/03 08:30:10;;;;;;;3.03;1.45;;;;;;;16.84;43.57;100631.09;5087019;28;20760;-75
2023/04/03 08:32:36;;;;;;;2.80;1.40;;;;;;;16.77;43.89;100631.09;5085923;28;20453;-76
2023/04/03 08:35:03;;;;;;;3.33;1.60;;;;;;;16.35;44.32;100636.81;5089749;28;20385;-75
2023/04/03 08:37:29;;;;;;;4.18;1.60;;;;;;;16.31;44.75;100629.38;5093376;28;20472;-76
2023/04/03 08:39:54;;;;;;;1.53;1.30;;;;;;;16.50;44.56;100619.69;5094682;28;20420;-77
2023/04/03 08:42:29;;;;;;;2.53;1.35;;;;;;;16.37;43.36;100617.88;5105109;28;20379;-74
2023/04/03 08:45:16;;;;;;;2.63;1.50;;;;;;;16.52;42.94;100618.41;5076083;28;20427;-75
2023/04/03 08:47:41;;;;;;;2.40;1.30;;;;;;;16.31;43.14;100616.84;5059806;28;20379;-75
2023/04/03 08:50:13;;;;;;;2.20;1.40;;;;;;;16.40;43.06;100617.44;5086847;28;20442;-76
2023/04/03 08:52:45;;;;;;;1.70;1.20;;;;;;;16.15;43.33;100611.94;5090590;28;20838;-76
2023/04/03 08:55:31;;;;;;;6.15;1.77;;;;;;;16.29;43.66;100618.09;5089504;28;20391;-75
2023/04/03 08:58:12;;;;;;;2.38;1.45;;;;;;;16.36;43.70;100622.38;5087154;28;20922;-75
2023/04/03 09:00:46;;;;;;;2.70;1.45;;;;;;;16.51;43.03;100627.50;5073204;28;20385;-74
2023/04/03 09:03:14;;;;;;;6.40;1.75;;;;;;;16.64;42.96;100615.91;5093399;28;20377;-76
2023/04/03 09:06:03;;;;;;;3.10;1.30;;;;;;;16.90;42.56;100625.69;5093251;28;20487;-76
2023/04/03 09:08:51;;;;;;;2.80;1.55;;;;;;;17.27;42.28;100614.34;5085023;28;20385;-75
2023/04/03 09:11:36;;;;;;;3.17;1.45;;;;;;;17.27;42.19;100612.50;5093236;28;20369;-75
2023/04/03 09:14:22;;;;;;;4.63;1.60;;;;;;;17.29;42.44;100623.81;5093594;28;20369;-75
2023/04/03 09:16:55;;;;;;;2.25;1.30;;;;;;;17.42;42.39;100620.22;5093237;28;20408;-75
2023/04/03 09:19:32;;;;;;;3.90;1.45;;;;;;;17.46;42.11;100612.56;5092705;28;21224;-75
2023/04/03 09:22:19;;;;;;;2.50;1.30;;;;;;;17.41;42.27;100604.38;5092034;28;20469;-75
2023/04/03 09:24:55;;;;;;;2.05;1.10;;;;;;;17.36;41.48;100607.72;5086109;28;20404;-75
2023/04/03 09:27:21;;;;;;;4.25;1.30;;;;;;;17.18;41.22;100601.22;5080702;28;20477;-76
2023/04/03 09:29:46;;;;;;;5.67;1.50;;;;;;;17.15;40.89;100590.94;5093416;28;20460;-75
2023/04/03 09:32:26;;;;;;;3.10;1.08;;;;;;;17.14;40.61;100601.88;5098972;28;20406;-75
2023/04/03 09:34:54;;;;;;;2.50;1.10;;;;;;;17.32;40.72;100585.88;5098665;28;20361;-75
2023/04/03 09:37:42;;;;;;;2.25;1.65;;;;;;;17.67;40.63;100597.97;5096403;28;20374;-75
2023/04/03 09:40:26;;;;;;;2.40;1.20;;;;;;;18.00;40.01;100591.50;5093058;28;20406;-75
2023/04/03 09:43:20;;;;;;;3.63;1.20;;;;;;;17.91;39.63;100593.66;5092752;28;20378;-78
2023/04/03 09:45:48;;;;;;;3.47;1.08;;;;;;;18.00;39.95;100600.38;5053304;28;20401;-77
2023/04/03 09:48:13;;;;;;;1.83;0.93;;;;;;;18.31;39.57;100593.22;5093010;28;20373;-76
2023/04/03 09:51:02;;;;;;;2.08;0.98;;;;;;;18.36;39.55;100597.94;5091709;28;20707;-75
2023/04/03 09:53:32;;;;;;;1.73;0.75;;;;;;;18.36;39.71;100597.94;5083858;28;20818;-74
2023/04/03 09:55:59;;;;;;;1.77;0.90;;;;;;;18.43;38.83;100606.72;5092365;28;20373;-76
2023/04/03 09:58:28;;;;;;;4.07;1.30;;;;;;;18.49;38.61;100609.34;5092394;28;20734;-76
2023/04/03 10:00:58;;;;;;;2.70;0.90;;;;;;;18.66;38.77;100604.16;5092168;28;20387;-76
2023/04/03 10:03:35;;;;;;;4.90;1.10;;;;;;;18.73;38.14;100602.22;5092744;28;20388;-76
2023/04/03 10:06:03;;;;;;;1.80;0.90;;;;;;;18.78;38.30;100601.53;5074005;28;20446;-75
2023/04/03 10:08:33;;;;;;;2.10;1.20;;;;;;;18.60;38.32;100607.75;5083814;28;20373;-75
2023/04/03 10:11:18;;;;;;;2.30;1.20;;;;;;;18.76;38.59;100608.97;5091877;28;20753;-77
2023/04/03 10:13:56;;;;;;;6.57;1.70;;;;;;;18.68;38.49;100607.44;5092049;28;20441;-76
2023/04/03 10:16:59;;;;;;;3.28;1.30;;;;;;;18.76;38.71;100603.59;5091205;28;20408;-76
2023/04/03 10:19:35;;;;;;;2.33;1.00;;;;;;;18.86;38.54;100592.38;5090683;28;20429;-75
2023/04/03 10:22:24;;;;;;;1.77;1.10;;;;;;;18.77;38.57;100599.88;5092347;28;20396;-74
2023/04/03 10:25:14;;;;;;;6.63;1.50;;;;;;;18.96;38.61;100587.28;5080946;28;20459;-77
2023/04/03 10:28:05;;;;;;;2.42;1.27;;;;;;;18.98;38.55;100587.88;5092790;28;20414;-76
2023/04/03 10:31:18;;;;;;;1.38;1.05;;;;;;;18.44;39.43;100585.03;5092132;28;20452;-75
2023/04/03 10:34:02;;;;;;;5.80;1.77;;;;;;;18.69;39.45;100586.75;5051477;28;20385;-74
2023/04/03 10:36:49;;;;;;;6.63;1.80;;;;;;;19.11;39.13;100573.41;5081746;28;20442;-75
2023/04/03 10:39:58;;;;;;;3.28;1.40;;;;;;;18.32;39.95;100582.25;5072814;28;20362;-76
2023/04/03 10:42:47;;;;;;;2.22;1.30;;;;;;;18.24;40.57;100565.66;5071780;28;20433;-76
2023/04/03 10:45:26;;;;;;;1.98;1.40;;;;;;;18.61;40.06;100561.06;5072786;28;20412;-74
2023/04/03 10:48:04;;;;;;;2.42;1.50;;;;;;;18.67;39.93;100551.28;5070544;28;20387;-75
2023/04/03 10:51:07;;;;;;;1.55;1.13;;;;;;;18.80;39.47;100551.09;5090210;28;20785;-75
2023/04/03 10:53:57;;;;;;;3.85;1.40;;;;;;;19.06;39.47;100549.09;5092190;28;20399;-77
2023/04/03 10:56:50;;;;;;;2.25;1.80;;;;;;;18.88;39.65;100548.09;5091727;28;20453;-75
2023/04/03 10:59:18;;;;;;;1.90;1.50;;;;;;;19.13;39.10;100557.06;5091898;28;20377;-78
2023/04/03 11:01:50;;;;;;;1.80;1.23;;;;;;;19.09;38.87;100529.84;5091699;28;20979;-75
2023/04/03 11:04:19;;;;;;;3.20;1.20;;;;;;;19.04;38.38;100543.94;5091307;28;20388;-75
2023/04/03 11:06:56;;;;;;;1.75;1.00;;;;;;;19.14;37.54;100521.06;5091764;28;20393;-75
2023/04/03 11:09:27;;;;;;;2.75;1.40;;;;;;;19.37;37.81;100525.66;5091894;28;20880;-76
2023/04/03 11:12:02;;;;;;;3.38;1.25;;;;;;;19.05;38.26;100524.09;5091494;28;20381;-76
2023/04/03 11:14:31;;;;;;;3.08;1.30;;;;;;;19.00;38.05;100529.34;5092797;28;20384;-76
2023/04/03 11:17:05;;;;;;;2.80;1.30;;;;;;;19.16;37.96;100508.22;5092047;28;20405;-75
2023/04/03 11:19:44;;;;;;;1.95;1.30;;;;;;;19.04;37.52;100510.91;5091107;28;20803;-76
2023/04/03 11:22:26;;;;;;;4.10;1.50;;;;;;;19.25;37.28;100502.28;5090838;28;20402;-75
2023/04/03 11:25:02;;;;;;;2.65;1.75;;;;;;;19.02;37.57;100503.06;5073145;28;20411;-75
2023/04/03 11:27:37;;;;;;;5.30;2.80;;;;;;;19.26;37.15;100501.22;5091650;28;20378;-76
2023/04/03 11:30:06;;;;;;;3.80;2.15;;;;;;;19.05;37.38;100504.47;5091246;28;20421;-76
2023/04/03 11:32:49;;;;;;;1.52;1.25;;;;;;;19.19;37.37;100499.69;5091225;28;20404;-76
2023/04/03 11:35:18;;;;;;;1.98;1.42;;;;;;;19.16;37.63;100492.94;5091070;28;20401;-76